sensor_id;sensor_type;location;lat;lon;timestamp;P1;durP1;ratioP1;P2;durP2;ratioP2
37459;SDS011;23318;50.966;5.284;2023-10-19T00:01:22;3.33;;;3.03;;
37459;SDS011;23318;50.966;5.284;2023-10-19T00:03:51;3.63;;;3.08;;
37459;SDS011;23318;50.966;5.284;2023-10-19T00:06:21;4.22;;;2.90;;
37459;SDS011;23318;50.966;5.284;2023-10-19T00:08:48;4.53;;;2.88;;
37459;SDS011;23318;50.966;5.284;2023-10-19T00:11:17;6.88;;;2.60;;
37459;SDS011;23318;50.966;5.284;2023-10-19T00:13:52;3.00;;;2.58;;
37459;SDS011;23318;50.966;5.284;2023-10-19T00:16:23;4.90;;;2.90;;
37459;SDS011;23318;50.966;5.284;2023-10-19T00:18:54;3.90;;;2.65;;
37459;SDS011;23318;50.966;5.284;2023-10-19T00:21:24;3.75;;;2.33;;
37459;SDS011;23318;50.966;5.284;2023-10-19T00:23:51;3.30;;;2.70;;
37459;SDS011;23318;50.966;5.284;2023-10-19T00:26:21;5.40;;;2.90;;
37459;SDS011;23318;50.966;5.284;2023-10-19T00:28:50;4.45;;;2.70;;
37459;SDS011;23318;50.966;5.284;2023-10-19T00:31:20;7.30;;;2.30;;
37459;SDS011;23318;50.966;5.284;2023-10-19T00:33:47;4.97;;;2.22;;
37459;SDS011;23318;50.966;5.284;2023-10-19T00:36:15;3.42;;;2.50;;
37459;SDS011;23318;50.966;5.284;2023-10-19T00:38:41;3.42;;;2.55;;
37459;SDS011;23318;50.966;5.284;2023-10-19T00:41:22;3.05;;;2.33;;
37459;SDS011;23318;50.966;5.284;2023-10-19T00:43:54;3.40;;;2.50;;
37459;SDS011;23318;50.966;5.284;2023-10-19T00:46:32;3.63;;;2.63;;
37459;SDS011;23318;50.966;5.284;2023-10-19T00:49:02;7.68;;;2.42;;
37459;SDS011;23318;50.966;5.284;2023-10-19T00:51:36;4.15;;;2.22;;
37459;SDS011;23318;50.966;5.284;2023-10-19T00:54:10;3.38;;;1.77;;
37459;SDS011;23318;50.966;5.284;2023-10-19T00:56:45;10.48;;;1.58;;
37459;SDS011;23318;50.966;5.284;2023-10-19T00:59:17;4.90;;;1.40;;
37459;SDS011;23318;50.966;5.284;2023-10-19T01:01:53;5.82;;;1.00;;
37459;SDS011;23318;50.966;5.284;2023-10-19T01:04:21;2.50;;;1.20;;
37459;SDS011;23318;50.966;5.284;2023-10-19T01:06:56;1.95;;;0.80;;
37459;SDS011;23318;50.966;5.284;2023-10-19T01:09:37;2.28;;;0.50;;
37459;SDS011;23318;50.966;5.284;2023-10-19T01:12:04;0.93;;;0.55;;
37459;SDS011;23318;50.966;5.284;2023-10-19T01:15:05;2.00;;;0.65;;
37459;SDS011;23318;50.966;5.284;2023-10-19T01:17:51;1.75;;;0.50;;
37459;SDS011;23318;50.966;5.284;2023-10-19T01:22:56;3.03;;;0.77;;
37459;SDS011;23318;50.966;5.284;2023-10-19T01:28:26;0.80;;;0.30;;
37459;SDS011;23318;50.966;5.284;2023-10-19T01:31:05;8.95;;;1.95;;
37459;SDS011;23318;50.966;5.284;2023-10-19T01:33:32;4.00;;;0.50;;
37459;SDS011;23318;50.966;5.284;2023-10-19T01:35:59;2.92;;;0.30;;
37459;SDS011;23318;50.966;5.284;2023-10-19T01:38:49;2.45;;;0.45;;
37459;SDS011;23318;50.966;5.284;2023-10-19T01:41:20;0.52;;;0.52;;
37459;SDS011;23318;50.966;5.284;2023-10-19T01:43:47;4.28;;;1.20;;
37459;SDS011;23318;50.966;5.284;2023-10-19T01:46:14;2.97;;;0.45;;
37459;SDS011;23318;50.966;5.284;2023-10-19T01:48:53;1.45;;;0.32;;
37459;SDS011;23318;50.966;5.284;2023-10-19T01:51:22;2.55;;;0.40;;
37459;SDS011;23318;50.966;5.284;2023-10-19T01:53:50;3.10;;;0.50;;
37459;SDS011;23318;50.966;5.284;2023-10-19T01:56:16;3.38;;;0.63;;
37459;SDS011;23318;50.966;5.284;2023-10-19T01:58:43;4.60;;;0.63;;
37459;SDS011;23318;50.966;5.284;2023-10-19T02:01:13;2.33;;;0.35;;
37459;SDS011;23318;50.966;5.284;2023-10-19T02:03:42;1.48;;;0.40;;
37459;SDS011;23318;50.966;5.284;2023-10-19T02:06:12;2.80;;;0.32;;
37459;SDS011;23318;50.966;5.284;2023-10-19T02:08:45;2.53;;;0.65;;
37459;SDS011;23318;50.966;5.284;2023-10-19T02:11:13;0.50;;;0.25;;
37459;SDS011;23318;50.966;5.284;2023-10-19T02:13:44;2.75;;;0.40;;
37459;SDS011;23318;50.966;5.284;2023-10-19T02:16:13;0.98;;;0.38;;
37459;SDS011;23318;50.966;5.284;2023-10-19T02:18:44;2.47;;;0.38;;
37459;SDS011;23318;50.966;5.284;2023-10-19T02:21:10;4.10;;;0.52;;
37459;SDS011;23318;50.966;5.284;2023-10-19T02:23:39;1.67;;;0.28;;
37459;SDS011;23318;50.966;5.284;2023-10-19T02:26:08;1.67;;;0.40;;
37459;SDS011;23318;50.966;5.284;2023-10-19T02:28:34;2.97;;;0.40;;
37459;SDS011;23318;50.966;5.284;2023-10-19T02:31:03;2.92;;;0.30;;
37459;SDS011;23318;50.966;5.284;2023-10-19T02:33:47;4.50;;;0.55;;
37459;SDS011;23318;50.966;5.284;2023-10-19T02:36:27;6.00;;;0.50;;
37459;SDS011;23318;50.966;5.284;2023-10-19T02:38:54;5.75;;;0.45;;
37459;SDS011;23318;50.966;5.284;2023-10-19T02:41:25;1.95;;;0.43;;
37459;SDS011;23318;50.966;5.284;2023-10-19T02:43:54;4.43;;;0.60;;
37459;SDS011;23318;50.966;5.284;2023-10-19T02:46:28;6.72;;;0.80;;
37459;SDS011;23318;50.966;5.284;2023-10-19T02:48:54;4.10;;;0.65;;
37459;SDS011;23318;50.966;5.284;2023-10-19T02:51:19;1.50;;;0.40;;
37459;SDS011;23318;50.966;5.284;2023-10-19T02:53:45;3.10;;;0.35;;
37459;SDS011;23318;50.966;5.284;2023-10-19T02:56:12;2.15;;;0.50;;
37459;SDS011;23318;50.966;5.284;2023-10-19T02:58:42;2.45;;;0.40;;
37459;SDS011;23318;50.966;5.284;2023-10-19T03:01:19;3.00;;;0.50;;
37459;SDS011;23318;50.966;5.284;2023-10-19T03:03:52;1.23;;;0.60;;
37459;SDS011;23318;50.966;5.284;2023-10-19T03:06:22;6.97;;;0.70;;
37459;SDS011;23318;50.966;5.284;2023-10-19T03:08:49;3.75;;;0.60;;
37459;SDS011;23318;50.966;5.284;2023-10-19T03:11:26;1.65;;;0.57;;
37459;SDS011;23318;50.966;5.284;2023-10-19T03:13:53;1.65;;;0.40;;
37459;SDS011;23318;50.966;5.284;2023-10-19T03:16:19;4.93;;;0.60;;
37459;SDS011;23318;50.966;5.284;2023-10-19T03:18:46;4.53;;;0.50;;
37459;SDS011;23318;50.966;5.284;2023-10-19T03:21:12;3.10;;;0.40;;
37459;SDS011;23318;50.966;5.284;2023-10-19T03:23:38;2.15;;;0.80;;
37459;SDS011;23318;50.966;5.284;2023-10-19T03:26:06;1.58;;;0.38;;
37459;SDS011;23318;50.966;5.284;2023-10-19T03:28:50;1.88;;;0.60;;
37459;SDS011;23318;50.966;5.284;2023-10-19T03:31:36;4.10;;;0.70;;
37459;SDS011;23318;50.966;5.284;2023-10-19T03:34:08;3.47;;;0.55;;
37459;SDS011;23318;50.966;5.284;2023-10-19T03:36:43;2.38;;;0.30;;
37459;SDS011;23318;50.966;5.284;2023-10-19T03:39:09;1.30;;;0.40;;
37459;SDS011;23318;50.966;5.284;2023-10-19T03:41:39;3.20;;;0.45;;
37459;SDS011;23318;50.966;5.284;2023-10-19T03:44:09;4.22;;;0.90;;
37459;SDS011;23318;50.966;5.284;2023-10-19T03:46:58;6.03;;;0.85;;
37459;SDS011;23318;50.966;5.284;2023-10-19T03:49:29;2.38;;;0.65;;
37459;SDS011;23318;50.966;5.284;2023-10-19T03:52:03;1.95;;;0.70;;
37459;SDS011;23318;50.966;5.284;2023-10-19T03:54:36;3.33;;;0.63;;
37459;SDS011;23318;50.966;5.284;2023-10-19T03:57:05;7.90;;;1.08;;
37459;SDS011;23318;50.966;5.284;2023-10-19T03:59:36;2.45;;;0.77;;
37459;SDS011;23318;50.966;5.284;2023-10-19T04:02:05;2.40;;;1.00;;
37459;SDS011;23318;50.966;5.284;2023-10-19T04:04:35;9.57;;;1.08;;
37459;SDS011;23318;50.966;5.284;2023-10-19T04:07:03;3.38;;;0.60;;
37459;SDS011;23318;50.966;5.284;2023-10-19T04:09:36;4.82;;;0.60;;
37459;SDS011;23318;50.966;5.284;2023-10-19T04:12:21;1.42;;;0.52;;
37459;SDS011;23318;50.966;5.284;2023-10-19T04:14:50;4.93;;;1.08;;
37459;SDS011;23318;50.966;5.284;2023-10-19T04:17:16;1.17;;;0.63;;
37459;SDS011;23318;50.966;5.284;2023-10-19T04:19:46;3.30;;;0.80;;
37459;SDS011;23318;50.966;5.284;2023-10-19T04:22:16;5.80;;;1.15;;
37459;SDS011;23318;50.966;5.284;2023-10-19T04:24:51;6.18;;;0.60;;
37459;SDS011;23318;50.966;5.284;2023-10-19T04:27:17;4.55;;;0.93;;
37459;SDS011;23318;50.966;5.284;2023-10-19T04:29:48;4.13;;;0.60;;
37459;SDS011;23318;50.966;5.284;2023-10-19T04:32:14;3.83;;;0.80;;
37459;SDS011;23318;50.966;5.284;2023-10-19T04:34:48;5.85;;;0.80;;
37459;SDS011;23318;50.966;5.284;2023-10-19T04:37:14;2.88;;;0.70;;
37459;SDS011;23318;50.966;5.284;2023-10-19T04:39:43;2.20;;;0.63;;
37459;SDS011;23318;50.966;5.284;2023-10-19T04:42:09;4.90;;;0.55;;
37459;SDS011;23318;50.966;5.284;2023-10-19T04:44:35;4.13;;;1.25;;
37459;SDS011;23318;50.966;5.284;2023-10-19T04:47:01;10.45;;;0.77;;
37459;SDS011;23318;50.966;5.284;2023-10-19T04:49:26;4.35;;;1.20;;
37459;SDS011;23318;50.966;5.284;2023-10-19T04:51:53;6.60;;;0.90;;
37459;SDS011;23318;50.966;5.284;2023-10-19T04:54:19;7.38;;;0.80;;
37459;SDS011;23318;50.966;5.284;2023-10-19T04:56:44;4.68;;;0.70;;
37459;SDS011;23318;50.966;5.284;2023-10-19T04:59:10;12.73;;;1.17;;
37459;SDS011;23318;50.966;5.284;2023-10-19T05:01:36;5.07;;;0.88;;
37459;SDS011;23318;50.966;5.284;2023-10-19T05:04:02;6.10;;;0.95;;
37459;SDS011;23318;50.966;5.284;2023-10-19T05:06:28;6.65;;;1.08;;
37459;SDS011;23318;50.966;5.284;2023-10-19T05:08:54;3.38;;;0.80;;
37459;SDS011;23318;50.966;5.284;2023-10-19T05:11:19;4.93;;;0.90;;
37459;SDS011;23318;50.966;5.284;2023-10-19T05:13:45;3.28;;;1.17;;
37459;SDS011;23318;50.966;5.284;2023-10-19T05:16:11;5.95;;;1.83;;
37459;SDS011;23318;50.966;5.284;2023-10-19T05:18:37;5.95;;;0.88;;
37459;SDS011;23318;50.966;5.284;2023-10-19T05:21:03;3.08;;;1.20;;
37459;SDS011;23318;50.966;5.284;2023-10-19T05:23:30;7.13;;;1.00;;
37459;SDS011;23318;50.966;5.284;2023-10-19T05:26:02;8.43;;;0.93;;
37459;SDS011;23318;50.966;5.284;2023-10-19T05:28:31;2.42;;;0.95;;
37459;SDS011;23318;50.966;5.284;2023-10-19T05:30:57;8.07;;;2.67;;
37459;SDS011;23318;50.966;5.284;2023-10-19T05:33:29;5.90;;;1.10;;
37459;SDS011;23318;50.966;5.284;2023-10-19T05:35:54;3.45;;;0.68;;
37459;SDS011;23318;50.966;5.284;2023-10-19T05:38:20;6.20;;;1.15;;
37459;SDS011;23318;50.966;5.284;2023-10-19T05:40:47;6.75;;;0.80;;
37459;SDS011;23318;50.966;5.284;2023-10-19T05:43:15;3.53;;;1.05;;
37459;SDS011;23318;50.966;5.284;2023-10-19T05:45:41;1.70;;;0.65;;
37459;SDS011;23318;50.966;5.284;2023-10-19T05:48:06;5.53;;;1.10;;
37459;SDS011;23318;50.966;5.284;2023-10-19T05:50:35;5.05;;;0.93;;
37459;SDS011;23318;50.966;5.284;2023-10-19T05:53:04;6.63;;;1.10;;
37459;SDS011;23318;50.966;5.284;2023-10-19T05:55:30;7.38;;;1.13;;
37459;SDS011;23318;50.966;5.284;2023-10-19T05:57:57;4.63;;;0.75;;
37459;SDS011;23318;50.966;5.284;2023-10-19T06:00:22;4.35;;;0.88;;
37459;SDS011;23318;50.966;5.284;2023-10-19T06:02:51;3.17;;;1.05;;
37459;SDS011;23318;50.966;5.284;2023-10-19T06:05:17;5.15;;;1.15;;
37459;SDS011;23318;50.966;5.284;2023-10-19T06:07:47;7.13;;;1.00;;
37459;SDS011;23318;50.966;5.284;2023-10-19T06:10:15;6.43;;;0.85;;
37459;SDS011;23318;50.966;5.284;2023-10-19T06:12:43;5.18;;;1.05;;
37459;SDS011;23318;50.966;5.284;2023-10-19T06:15:10;4.63;;;0.82;;
37459;SDS011;23318;50.966;5.284;2023-10-19T06:17:37;5.68;;;0.90;;
37459;SDS011;23318;50.966;5.284;2023-10-19T06:20:07;6.38;;;1.15;;
37459;SDS011;23318;50.966;5.284;2023-10-19T06:22:45;4.43;;;0.90;;
37459;SDS011;23318;50.966;5.284;2023-10-19T06:25:15;5.25;;;0.80;;
37459;SDS011;23318;50.966;5.284;2023-10-19T06:27:43;5.70;;;1.33;;
37459;SDS011;23318;50.966;5.284;2023-10-19T06:30:08;3.53;;;1.30;;
37459;SDS011;23318;50.966;5.284;2023-10-19T06:32:35;6.97;;;1.23;;
37459;SDS011;23318;50.966;5.284;2023-10-19T06:35:02;4.63;;;2.00;;
37459;SDS011;23318;50.966;5.284;2023-10-19T06:37:28;8.40;;;1.52;;
37459;SDS011;23318;50.966;5.284;2023-10-19T06:39:54;8.55;;;0.82;;
37459;SDS011;23318;50.966;5.284;2023-10-19T06:42:20;5.65;;;0.60;;
37459;SDS011;23318;50.966;5.284;2023-10-19T06:44:46;7.85;;;0.93;;
37459;SDS011;23318;50.966;5.284;2023-10-19T06:47:11;2.47;;;0.73;;
37459;SDS011;23318;50.966;5.284;2023-10-19T06:49:38;3.60;;;0.73;;
37459;SDS011;23318;50.966;5.284;2023-10-19T06:52:04;2.38;;;0.70;;
37459;SDS011;23318;50.966;5.284;2023-10-19T06:54:31;6.70;;;0.90;;
37459;SDS011;23318;50.966;5.284;2023-10-19T06:56:57;4.65;;;1.02;;
37459;SDS011;23318;50.966;5.284;2023-10-19T06:59:23;3.30;;;0.82;;
37459;SDS011;23318;50.966;5.284;2023-10-19T07:01:49;5.97;;;1.00;;
37459;SDS011;23318;50.966;5.284;2023-10-19T07:04:15;8.68;;;1.02;;
37459;SDS011;23318;50.966;5.284;2023-10-19T07:06:41;3.88;;;0.80;;
37459;SDS011;23318;50.966;5.284;2023-10-19T07:09:06;7.50;;;0.95;;
37459;SDS011;23318;50.966;5.284;2023-10-19T07:11:35;6.18;;;1.10;;
37459;SDS011;23318;50.966;5.284;2023-10-19T07:14:01;3.08;;;0.88;;
37459;SDS011;23318;50.966;5.284;2023-10-19T07:16:27;8.85;;;1.77;;
37459;SDS011;23318;50.966;5.284;2023-10-19T07:18:52;3.05;;;0.82;;
37459;SDS011;23318;50.966;5.284;2023-10-19T07:21:18;6.18;;;0.80;;
37459;SDS011;23318;50.966;5.284;2023-10-19T07:23:44;6.47;;;0.90;;
37459;SDS011;23318;50.966;5.284;2023-10-19T07:26:11;5.03;;;1.45;;
37459;SDS011;23318;50.966;5.284;2023-10-19T07:28:39;6.03;;;1.05;;
37459;SDS011;23318;50.966;5.284;2023-10-19T07:31:05;2.20;;;1.10;;
37459;SDS011;23318;50.966;5.284;2023-10-19T07:33:37;8.00;;;1.30;;
37459;SDS011;23318;50.966;5.284;2023-10-19T07:36:11;6.80;;;1.65;;
37459;SDS011;23318;50.966;5.284;2023-10-19T07:38:40;8.32;;;1.08;;
37459;SDS011;23318;50.966;5.284;2023-10-19T07:41:07;5.03;;;1.35;;
37459;SDS011;23318;50.966;5.284;2023-10-19T07:43:34;7.68;;;1.70;;
37459;SDS011;23318;50.966;5.284;2023-10-19T07:46:01;6.60;;;1.25;;
37459;SDS011;23318;50.966;5.284;2023-10-19T07:48:27;5.35;;;1.15;;
37459;SDS011;23318;50.966;5.284;2023-10-19T07:50:52;5.78;;;1.17;;
37459;SDS011;23318;50.966;5.284;2023-10-19T07:53:18;8.25;;;1.42;;
37459;SDS011;23318;50.966;5.284;2023-10-19T07:55:44;9.63;;;2.30;;
37459;SDS011;23318;50.966;5.284;2023-10-19T07:58:09;1.63;;;1.10;;
37459;SDS011;23318;50.966;5.284;2023-10-19T08:00:35;8.15;;;1.60;;
37459;SDS011;23318;50.966;5.284;2023-10-19T08:03:04;4.80;;;1.40;;
37459;SDS011;23318;50.966;5.284;2023-10-19T08:05:31;3.45;;;1.20;;
37459;SDS011;23318;50.966;5.284;2023-10-19T08:07:58;6.85;;;1.10;;
37459;SDS011;23318;50.966;5.284;2023-10-19T08:10:25;11.73;;;1.20;;
37459;SDS011;23318;50.966;5.284;2023-10-19T08:12:51;5.28;;;1.50;;
37459;SDS011;23318;50.966;5.284;2023-10-19T08:15:18;5.18;;;1.13;;
37459;SDS011;23318;50.966;5.284;2023-10-19T08:17:46;6.18;;;1.50;;
37459;SDS011;23318;50.966;5.284;2023-10-19T08:20:13;5.60;;;1.35;;
37459;SDS011;23318;50.966;5.284;2023-10-19T08:22:48;6.00;;;1.33;;
37459;SDS011;23318;50.966;5.284;2023-10-19T08:25:17;10.77;;;1.67;;
37459;SDS011;23318;50.966;5.284;2023-10-19T08:27:43;6.72;;;1.67;;
37459;SDS011;23318;50.966;5.284;2023-10-19T08:30:13;5.55;;;1.27;;
37459;SDS011;23318;50.966;5.284;2023-10-19T08:32:42;8.65;;;2.15;;
37459;SDS011;23318;50.966;5.284;2023-10-19T08:35:08;4.47;;;0.93;;
37459;SDS011;23318;50.966;5.284;2023-10-19T08:37:38;7.20;;;1.70;;
37459;SDS011;23318;50.966;5.284;2023-10-19T08:40:07;9.35;;;1.20;;
37459;SDS011;23318;50.966;5.284;2023-10-19T08:42:40;11.35;;;1.23;;
37459;SDS011;23318;50.966;5.284;2023-10-19T08:45:13;5.43;;;1.17;;
37459;SDS011;23318;50.966;5.284;2023-10-19T08:47:48;6.82;;;1.10;;
37459;SDS011;23318;50.966;5.284;2023-10-19T08:50:32;10.90;;;1.23;;
37459;SDS011;23318;50.966;5.284;2023-10-19T08:52:59;5.82;;;1.20;;
37459;SDS011;23318;50.966;5.284;2023-10-19T08:55:31;10.55;;;1.75;;
37459;SDS011;23318;50.966;5.284;2023-10-19T08:57:59;7.30;;;1.58;;
37459;SDS011;23318;50.966;5.284;2023-10-19T09:00:25;7.30;;;2.08;;
37459;SDS011;23318;50.966;5.284;2023-10-19T09:02:52;5.40;;;1.00;;
37459;SDS011;23318;50.966;5.284;2023-10-19T09:05:19;14.07;;;1.30;;
37459;SDS011;23318;50.966;5.284;2023-10-19T09:07:47;7.93;;;1.33;;
37459;SDS011;23318;50.966;5.284;2023-10-19T09:10:28;5.20;;;1.00;;
37459;SDS011;23318;50.966;5.284;2023-10-19T09:15:30;7.32;;;1.58;;
37459;SDS011;23318;50.966;5.284;2023-10-19T09:18:19;10.50;;;1.63;;
37459;SDS011;23318;50.966;5.284;2023-10-19T09:20:45;13.25;;;1.63;;
37459;SDS011;23318;50.966;5.284;2023-10-19T09:23:24;7.45;;;1.13;;
37459;SDS011;23318;50.966;5.284;2023-10-19T09:25:56;5.15;;;1.25;;
37459;SDS011;23318;50.966;5.284;2023-10-19T09:28:22;9.73;;;1.55;;
37459;SDS011;23318;50.966;5.284;2023-10-19T09:30:49;7.05;;;1.50;;
37459;SDS011;23318;50.966;5.284;2023-10-19T09:33:15;9.23;;;1.20;;
37459;SDS011;23318;50.966;5.284;2023-10-19T09:35:49;5.40;;;1.30;;
37459;SDS011;23318;50.966;5.284;2023-10-19T09:38:17;11.38;;;1.50;;
37459;SDS011;23318;50.966;5.284;2023-10-19T09:40:53;5.72;;;1.02;;
37459;SDS011;23318;50.966;5.284;2023-10-19T09:43:37;9.88;;;1.20;;
37459;SDS011;23318;50.966;5.284;2023-10-19T09:46:07;12.13;;;1.48;;
37459;SDS011;23318;50.966;5.284;2023-10-19T09:48:40;13.55;;;1.90;;
37459;SDS011;23318;50.966;5.284;2023-10-19T09:51:07;26.85;;;3.58;;
37459;SDS011;23318;50.966;5.284;2023-10-19T09:53:34;4.53;;;1.15;;
37459;SDS011;23318;50.966;5.284;2023-10-19T09:56:03;6.65;;;1.30;;
37459;SDS011;23318;50.966;5.284;2023-10-19T09:58:41;6.97;;;2.00;;
37459;SDS011;23318;50.966;5.284;2023-10-19T10:01:11;8.13;;;1.35;;
37459;SDS011;23318;50.966;5.284;2023-10-19T10:03:50;4.97;;;1.45;;
37459;SDS011;23318;50.966;5.284;2023-10-19T10:06:17;10.43;;;1.30;;
37459;SDS011;23318;50.966;5.284;2023-10-19T10:09:16;6.75;;;1.52;;
37459;SDS011;23318;50.966;5.284;2023-10-19T10:11:48;9.10;;;1.52;;
37459;SDS011;23318;50.966;5.284;2023-10-19T10:14:24;9.13;;;0.98;;
37459;SDS011;23318;50.966;5.284;2023-10-19T10:17:24;8.73;;;1.13;;
37459;SDS011;23318;50.966;5.284;2023-10-19T10:19:43;11.30;;;1.52;;
37459;SDS011;23318;50.966;5.284;2023-10-19T10:22:10;13.63;;;1.30;;
37459;SDS011;23318;50.966;5.284;2023-10-19T10:24:43;7.72;;;1.40;;
37459;SDS011;23318;50.966;5.284;2023-10-19T10:27:09;8.55;;;1.25;;
37459;SDS011;23318;50.966;5.284;2023-10-19T10:29:38;14.38;;;1.75;;
37459;SDS011;23318;50.966;5.284;2023-10-19T10:38:03;6.72;;;1.30;;
37459;SDS011;23318;50.966;5.284;2023-10-19T10:40:43;7.63;;;1.00;;
37459;SDS011;23318;50.966;5.284;2023-10-19T10:43:13;10.65;;;2.03;;
37459;SDS011;23318;50.966;5.284;2023-10-19T10:45:39;8.32;;;2.33;;
37459;SDS011;23318;50.966;5.284;2023-10-19T10:48:14;8.85;;;1.73;;
37459;SDS011;23318;50.966;5.284;2023-10-19T10:50:40;9.60;;;2.30;;
37459;SDS011;23318;50.966;5.284;2023-10-19T10:53:07;6.57;;;2.03;;
37459;SDS011;23318;50.966;5.284;2023-10-19T10:55:33;10.18;;;1.63;;
37459;SDS011;23318;50.966;5.284;2023-10-19T10:57:59;7.47;;;1.52;;
37459;SDS011;23318;50.966;5.284;2023-10-19T11:00:25;8.98;;;1.88;;
37459;SDS011;23318;50.966;5.284;2023-10-19T11:03:00;9.80;;;1.60;;
37459;SDS011;23318;50.966;5.284;2023-10-19T11:05:32;4.97;;;1.25;;
37459;SDS011;23318;50.966;5.284;2023-10-19T11:10:39;8.57;;;1.50;;
37459;SDS011;23318;50.966;5.284;2023-10-19T11:13:10;6.20;;;1.45;;
37459;SDS011;23318;50.966;5.284;2023-10-19T11:15:38;7.90;;;1.70;;
37459;SDS011;23318;50.966;5.284;2023-10-19T11:18:27;9.50;;;2.90;;
37459;SDS011;23318;50.966;5.284;2023-10-19T11:20:56;7.93;;;1.52;;
37459;SDS011;23318;50.966;5.284;2023-10-19T11:26:21;5.28;;;1.20;;
37459;SDS011;23318;50.966;5.284;2023-10-19T11:29:01;8.68;;;2.03;;
37459;SDS011;23318;50.966;5.284;2023-10-19T11:31:34;8.95;;;1.45;;
37459;SDS011;23318;50.966;5.284;2023-10-19T11:34:04;5.57;;;1.63;;
37459;SDS011;23318;50.966;5.284;2023-10-19T11:36:30;15.93;;;2.35;;
37459;SDS011;23318;50.966;5.284;2023-10-19T11:38:56;6.13;;;0.98;;
37459;SDS011;23318;50.966;5.284;2023-10-19T11:41:22;8.13;;;1.50;;
37459;SDS011;23318;50.966;5.284;2023-10-19T11:43:48;8.05;;;0.98;;
37459;SDS011;23318;50.966;5.284;2023-10-19T11:46:15;7.97;;;1.60;;
37459;SDS011;23318;50.966;5.284;2023-10-19T11:48:47;8.48;;;1.40;;
37459;SDS011;23318;50.966;5.284;2023-10-19T11:51:13;7.78;;;1.50;;
37459;SDS011;23318;50.966;5.284;2023-10-19T11:53:40;5.20;;;1.40;;
37459;SDS011;23318;50.966;5.284;2023-10-19T11:56:08;11.63;;;2.83;;
37459;SDS011;23318;50.966;5.284;2023-10-19T11:58:35;6.45;;;1.25;;
37459;SDS011;23318;50.966;5.284;2023-10-19T12:01:03;7.40;;;1.30;;
37459;SDS011;23318;50.966;5.284;2023-10-19T12:03:38;7.63;;;2.30;;
37459;SDS011;23318;50.966;5.284;2023-10-19T12:06:06;4.70;;;1.35;;
37459;SDS011;23318;50.966;5.284;2023-10-19T12:08:32;5.43;;;0.95;;
37459;SDS011;23318;50.966;5.284;2023-10-19T12:11:02;5.90;;;1.65;;
37459;SDS011;23318;50.966;5.284;2023-10-19T12:13:29;7.45;;;1.27;;
37459;SDS011;23318;50.966;5.284;2023-10-19T12:15:56;7.85;;;1.33;;
37459;SDS011;23318;50.966;5.284;2023-10-19T12:18:22;7.50;;;1.02;;
37459;SDS011;23318;50.966;5.284;2023-10-19T12:20:50;5.40;;;1.48;;
37459;SDS011;23318;50.966;5.284;2023-10-19T12:23:21;9.35;;;1.50;;
37459;SDS011;23318;50.966;5.284;2023-10-19T12:25:48;7.00;;;1.42;;
37459;SDS011;23318;50.966;5.284;2023-10-19T12:28:14;4.35;;;0.98;;
37459;SDS011;23318;50.966;5.284;2023-10-19T12:30:41;7.15;;;1.38;;
37459;SDS011;23318;50.966;5.284;2023-10-19T12:33:07;5.78;;;1.40;;
37459;SDS011;23318;50.966;5.284;2023-10-19T12:35:42;3.00;;;1.13;;
37459;SDS011;23318;50.966;5.284;2023-10-19T12:38:18;4.82;;;1.45;;
37459;SDS011;23318;50.966;5.284;2023-10-19T12:40:48;6.35;;;1.75;;
37459;SDS011;23318;50.966;5.284;2023-10-19T12:43:16;4.75;;;1.20;;
37459;SDS011;23318;50.966;5.284;2023-10-19T12:45:47;6.55;;;1.30;;
37459;SDS011;23318;50.966;5.284;2023-10-19T12:48:18;5.22;;;1.23;;
37459;SDS011;23318;50.966;5.284;2023-10-19T12:50:46;3.30;;;1.30;;
37459;SDS011;23318;50.966;5.284;2023-10-19T12:53:12;8.10;;;1.60;;
37459;SDS011;23318;50.966;5.284;2023-10-19T12:55:39;5.28;;;1.30;;
37459;SDS011;23318;50.966;5.284;2023-10-19T12:58:05;7.72;;;1.48;;
37459;SDS011;23318;50.966;5.284;2023-10-19T13:00:34;9.30;;;1.50;;
37459;SDS011;23318;50.966;5.284;2023-10-19T13:03:09;7.15;;;1.85;;
37459;SDS011;23318;50.966;5.284;2023-10-19T13:05:38;8.77;;;1.98;;
37459;SDS011;23318;50.966;5.284;2023-10-19T13:08:06;8.73;;;1.63;;
37459;SDS011;23318;50.966;5.284;2023-10-19T13:10:38;5.82;;;1.45;;
37459;SDS011;23318;50.966;5.284;2023-10-19T13:13:08;8.48;;;1.77;;
37459;SDS011;23318;50.966;5.284;2023-10-19T13:15:36;7.05;;;1.40;;
37459;SDS011;23318;50.966;5.284;2023-10-19T13:18:04;3.83;;;1.40;;
37459;SDS011;23318;50.966;5.284;2023-10-19T13:20:32;6.25;;;1.70;;
37459;SDS011;23318;50.966;5.284;2023-10-19T13:23:02;6.53;;;1.55;;
37459;SDS011;23318;50.966;5.284;2023-10-19T13:25:35;6.82;;;1.83;;
37459;SDS011;23318;50.966;5.284;2023-10-19T13:28:10;6.75;;;1.45;;
37459;SDS011;23318;50.966;5.284;2023-10-19T13:30:41;7.20;;;1.50;;
37459;SDS011;23318;50.966;5.284;2023-10-19T13:33:08;4.97;;;1.60;;
37459;SDS011;23318;50.966;5.284;2023-10-19T13:35:39;5.50;;;1.38;;
37459;SDS011;23318;50.966;5.284;2023-10-19T13:38:06;4.68;;;1.65;;
37459;SDS011;23318;50.966;5.284;2023-10-19T13:40:34;5.70;;;1.25;;
37459;SDS011;23318;50.966;5.284;2023-10-19T13:43:01;4.90;;;1.27;;
37459;SDS011;23318;50.966;5.284;2023-10-19T13:45:30;6.43;;;1.63;;
37459;SDS011;23318;50.966;5.284;2023-10-19T13:47:57;7.88;;;2.25;;
37459;SDS011;23318;50.966;5.284;2023-10-19T13:50:23;4.43;;;1.00;;
37459;SDS011;23318;50.966;5.284;2023-10-19T13:52:51;5.68;;;1.30;;
37459;SDS011;23318;50.966;5.284;2023-10-19T13:55:18;6.85;;;1.52;;
37459;SDS011;23318;50.966;5.284;2023-10-19T13:57:45;6.38;;;0.95;;
37459;SDS011;23318;50.966;5.284;2023-10-19T14:00:13;4.95;;;1.00;;
37459;SDS011;23318;50.966;5.284;2023-10-19T14:02:45;4.63;;;1.48;;
37459;SDS011;23318;50.966;5.284;2023-10-19T14:05:14;3.35;;;0.75;;
37459;SDS011;23318;50.966;5.284;2023-10-19T14:07:40;4.13;;;1.00;;
37459;SDS011;23318;50.966;5.284;2023-10-19T14:10:06;2.58;;;1.00;;
37459;SDS011;23318;50.966;5.284;2023-10-19T14:12:33;2.92;;;0.80;;
37459;SDS011;23318;50.966;5.284;2023-10-19T14:14:59;4.13;;;1.20;;
37459;SDS011;23318;50.966;5.284;2023-10-19T14:17:24;4.47;;;0.90;;
37459;SDS011;23318;50.966;5.284;2023-10-19T14:19:50;2.13;;;1.00;;
37459;SDS011;23318;50.966;5.284;2023-10-19T14:22:16;5.03;;;1.45;;
37459;SDS011;23318;50.966;5.284;2023-10-19T14:24:42;3.38;;;0.88;;
37459;SDS011;23318;50.966;5.284;2023-10-19T14:27:10;2.08;;;0.88;;
37459;SDS011;23318;50.966;5.284;2023-10-19T14:29:35;3.13;;;1.00;;
37459;SDS011;23318;50.966;5.284;2023-10-19T14:32:01;3.03;;;0.77;;
37459;SDS011;23318;50.966;5.284;2023-10-19T14:34:28;6.97;;;1.17;;
37459;SDS011;23318;50.966;5.284;2023-10-19T14:36:54;1.70;;;0.70;;
37459;SDS011;23318;50.966;5.284;2023-10-19T14:39:20;3.75;;;1.05;;
37459;SDS011;23318;50.966;5.284;2023-10-19T14:41:46;8.45;;;1.30;;
37459;SDS011;23318;50.966;5.284;2023-10-19T14:44:11;4.40;;;1.10;;
37459;SDS011;23318;50.966;5.284;2023-10-19T14:46:37;2.65;;;0.90;;
37459;SDS011;23318;50.966;5.284;2023-10-19T14:49:03;4.18;;;1.02;;
37459;SDS011;23318;50.966;5.284;2023-10-19T14:51:29;2.58;;;0.73;;
37459;SDS011;23318;50.966;5.284;2023-10-19T14:53:55;3.75;;;1.05;;
37459;SDS011;23318;50.966;5.284;2023-10-19T14:56:21;1.88;;;0.63;;
37459;SDS011;23318;50.966;5.284;2023-10-19T14:58:46;4.60;;;0.90;;
37459;SDS011;23318;50.966;5.284;2023-10-19T15:01:12;2.13;;;1.00;;
37459;SDS011;23318;50.966;5.284;2023-10-19T15:03:42;4.45;;;0.98;;
37459;SDS011;23318;50.966;5.284;2023-10-19T15:06:08;5.90;;;0.90;;
37459;SDS011;23318;50.966;5.284;2023-10-19T15:08:33;3.03;;;0.82;;
37459;SDS011;23318;50.966;5.284;2023-10-19T15:10:59;1.92;;;0.80;;
37459;SDS011;23318;50.966;5.284;2023-10-19T15:13:25;1.90;;;0.80;;
37459;SDS011;23318;50.966;5.284;2023-10-19T15:15:51;3.85;;;0.70;;
37459;SDS011;23318;50.966;5.284;2023-10-19T15:18:17;4.95;;;1.00;;
37459;SDS011;23318;50.966;5.284;2023-10-19T15:20:43;7.10;;;1.20;;